createdAt,value
2019-03-06T00:02:28.624Z,95.80
2019-03-06T00:04:59.100Z,95.80
2019-03-06T00:07:29.487Z,95.90
2019-03-06T00:09:59.873Z,95.70
2019-03-06T00:12:30.226Z,95.90
2019-03-06T00:15:00.578Z,95.80
2019-03-06T00:17:31.106Z,95.70
2019-03-06T00:20:01.562Z,95.60
2019-03-06T00:22:32.976Z,95.80
2019-03-06T00:25:03.420Z,95.90
2019-03-06T00:27:33.815Z,95.80
2019-03-06T00:30:04.542Z,95.90
2019-03-06T00:32:35.068Z,95.90
2019-03-06T00:35:07.392Z,95.80
2019-03-06T00:37:37.784Z,96.10
2019-03-06T00:40:15.763Z,95.90
2019-03-06T00:42:49.429Z,95.90
2019-03-06T00:45:19.762Z,96.10
2019-03-06T00:47:50.235Z,96.20
2019-03-06T00:50:20.567Z,96.70
2019-03-06T00:52:50.996Z,96.90
2019-03-06T00:55:21.462Z,96.80
2019-03-06T00:57:51.811Z,97.00
2019-03-06T01:00:23.964Z,96.90
2019-03-06T01:02:54.656Z,96.80
2019-03-06T01:05:25.628Z,96.60
2019-03-06T01:07:55.997Z,96.30
2019-03-06T01:10:26.330Z,96.20
2019-03-06T01:12:56.681Z,96.10
2019-03-06T01:15:27.138Z,96.20
2019-03-06T01:17:57.674Z,96.20
2019-03-06T01:20:28.019Z,96.10
2019-03-06T01:22:58.393Z,96.10
2019-03-06T01:25:28.840Z,96.20
2019-03-06T01:27:59.417Z,96.40
2019-03-06T01:30:29.765Z,96.50
2019-03-06T01:33:05.887Z,96.50
2019-03-06T01:35:57.942Z,96.50
2019-03-06T01:38:59.326Z,96.60
2019-03-06T01:41:52.522Z,97.00
2019-03-06T01:44:34.068Z,96.80
2019-03-06T01:47:04.506Z,96.90
2019-03-06T01:49:34.982Z,96.70
2019-03-06T01:52:05.321Z,96.50
2019-03-06T01:54:35.662Z,96.40
2019-03-06T01:57:07.183Z,96.50
2019-03-06T01:59:37.573Z,96.60
2019-03-06T02:02:07.924Z,96.60
2019-03-06T02:04:38.360Z,96.30
2019-03-06T02:07:10.555Z,96.20
2019-03-06T02:09:41.422Z,96.10
2019-03-06T02:12:11.854Z,96.10
2019-03-06T02:14:42.497Z,96.20
2019-03-06T02:17:12.863Z,95.90
2019-03-06T02:19:44.016Z,95.90
2019-03-06T02:22:14.816Z,96.00
2019-03-06T02:24:45.475Z,96.20
2019-03-06T02:27:16.132Z,96.00
2019-03-06T02:29:46.491Z,95.90
2019-03-06T02:32:16.959Z,95.70
2019-03-06T02:34:47.317Z,95.70
2019-03-06T02:37:17.784Z,95.50
2019-03-06T02:39:48.195Z,95.80
2019-03-06T02:42:18.674Z,95.80
2019-03-06T02:44:50.925Z,95.70
2019-03-06T02:47:21.345Z,95.80
2019-03-06T02:49:52.132Z,96.20
2019-03-06T02:52:22.749Z,96.10
2019-03-06T02:54:53.342Z,96.10
2019-03-06T02:57:23.878Z,96.40
2019-03-06T03:00:13.467Z,96.00
2019-03-06T03:02:57.974Z,96.00
2019-03-06T03:05:32.072Z,96.10
2019-03-06T03:08:02.417Z,96.20
2019-03-06T03:10:32.885Z,96.40
2019-03-06T03:13:03.668Z,96.70
2019-03-06T03:15:34.526Z,96.90
2019-03-06T03:18:04.873Z,96.90
2019-03-06T03:20:35.223Z,96.80
2019-03-06T03:23:05.570Z,97.00
2019-03-06T03:25:38.568Z,97.40
2019-03-06T03:28:08.943Z,97.10
2019-03-06T03:30:39.333Z,96.80
2019-03-06T03:33:29.786Z,96.80
2019-03-06T03:36:00.155Z,96.60
2019-03-06T03:38:31.299Z,96.40
2019-03-06T03:41:02.034Z,96.60
2019-03-06T03:43:32.397Z,97.10
2019-03-06T03:46:14.471Z,96.80
2019-03-06T03:48:44.914Z,96.80
2019-03-06T03:51:15.286Z,96.50
2019-03-06T03:53:45.649Z,96.20
2019-03-06T03:56:16.036Z,95.90
2019-03-06T03:58:46.390Z,95.80
2019-03-06T04:01:17.064Z,96.00
2019-03-06T04:03:47.653Z,95.80
2019-03-06T04:06:18.855Z,95.80
2019-03-06T04:08:49.181Z,95.90
2019-03-06T04:11:19.635Z,96.00
2019-03-06T04:13:49.961Z,96.20
2019-03-06T04:16:20.326Z,96.10
2019-03-06T04:18:50.656Z,96.30
2019-03-06T04:21:21.012Z,96.50
2019-03-06T04:23:51.400Z,96.60
2019-03-06T04:26:21.771Z,96.40
2019-03-06T04:28:52.114Z,96.40
2019-03-06T04:31:22.499Z,96.50
2019-03-06T04:33:52.829Z,96.90
2019-03-06T04:36:23.216Z,97.10
2019-03-06T04:38:53.540Z,97.10
2019-03-06T04:41:25.211Z,97.40
2019-03-06T04:43:55.545Z,97.20
2019-03-06T04:46:25.928Z,97.50
2019-03-06T04:48:56.226Z,97.40
2019-03-06T04:51:26.606Z,97.50
2019-03-06T04:53:56.911Z,97.30
2019-03-06T04:56:27.282Z,97.40
2019-03-06T04:58:57.613Z,97.50
2019-03-06T05:01:27.980Z,97.90
2019-03-06T05:03:58.405Z,97.60
2019-03-06T05:06:28.826Z,97.40
2019-03-06T05:08:59.166Z,97.30
2019-03-06T05:11:29.670Z,97.00
2019-03-06T05:14:00.025Z,96.80
2019-03-06T05:16:49.241Z,96.90
2019-03-06T05:19:24.368Z,97.00
2019-03-06T05:21:55.162Z,97.10
2019-03-06T05:24:25.812Z,97.00
2019-03-06T05:26:56.221Z,96.90
2019-03-06T05:29:26.713Z,97.40
2019-03-06T05:32:24.813Z,97.80
2019-03-06T05:34:55.426Z,97.50
2019-03-06T05:37:47.173Z,97.40
2019-03-06T05:40:17.617Z,97.30
2019-03-06T05:42:48.278Z,97.10
2019-03-06T05:45:18.647Z,96.90
2019-03-06T05:47:50.080Z,96.70
2019-03-06T05:50:20.782Z,96.50
2019-03-06T05:52:51.382Z,96.00
2019-03-06T05:55:21.838Z,95.70
2019-03-06T05:57:52.291Z,95.40
2019-03-06T06:00:24.550Z,95.20
2019-03-06T06:02:54.888Z,95.10
2019-03-06T06:05:26.334Z,95.10
2019-03-06T06:07:56.696Z,95.40
2019-03-06T06:10:27.074Z,95.10
2019-03-06T06:12:58.424Z,95.10
2019-03-06T06:15:28.829Z,95.30
2019-03-06T06:17:59.205Z,95.70
2019-03-06T06:20:29.593Z,95.70
2019-03-06T06:23:28.046Z,95.90
2019-03-06T06:25:58.635Z,95.90
2019-03-06T06:28:32.788Z,96.20
2019-03-06T06:31:03.192Z,96.40
2019-03-06T06:33:33.528Z,96.60
2019-03-06T06:36:03.891Z,96.80
2019-03-06T06:38:34.235Z,97.00
2019-03-06T06:41:04.998Z,97.10
2019-03-06T06:43:35.879Z,97.10
2019-03-06T06:46:07.655Z,97.10
2019-03-06T06:48:40.194Z,97.20
2019-03-06T06:51:50.999Z,97.20
2019-03-06T06:54:59.435Z,97.20
2019-03-06T06:57:51.921Z,97.20
2019-03-06T07:01:05.256Z,97.30
2019-03-06T07:04:42.174Z,97.30
2019-03-06T07:07:37.333Z,97.30
2019-03-06T07:10:25.468Z,97.30
2019-03-06T07:13:07.108Z,97.30
2019-03-06T07:15:58.727Z,97.50
2019-03-06T07:18:43.870Z,97.50
2019-03-06T07:21:23.367Z,97.60
2019-03-06T07:24:18.709Z,97.70
2019-03-06T07:27:24.428Z,97.70
2019-03-06T07:30:22.367Z,97.80
2019-03-06T07:33:14.861Z,97.90
2019-03-06T07:36:18.695Z,98.10
2019-03-06T07:38:52.517Z,98.80
2019-03-06T07:41:39.865Z,98.90
2019-03-06T07:44:30.102Z,99.10
2019-03-06T07:47:20.958Z,99.50
2019-03-06T07:50:10.511Z,99.20
2019-03-06T07:53:12.003Z,99.10
2019-03-06T07:55:58.044Z,99.00
2019-03-06T07:58:52.453Z,99.00
2019-03-06T08:01:29.041Z,98.70
2019-03-06T08:04:13.437Z,98.50
2019-03-06T08:06:47.765Z,98.20
2019-03-06T08:09:19.908Z,98.00
2019-03-06T08:12:12.157Z,97.70
2019-03-06T08:15:07.254Z,97.50
2019-03-06T08:17:50.869Z,97.10
2019-03-06T08:20:36.738Z,96.90
2019-03-06T08:23:37.407Z,97.00
2019-03-06T08:26:08.192Z,96.30
2019-03-06T08:28:38.994Z,96.20
2019-03-06T08:31:31.459Z,95.90
2019-03-06T08:34:01.939Z,96.10
2019-03-06T08:36:34.422Z,95.60
2019-03-06T08:39:16.147Z,95.50
2019-03-06T08:41:46.586Z,95.80
2019-03-06T08:44:17.594Z,95.60
2019-03-06T08:46:57.839Z,95.50
2019-03-06T08:49:47.353Z,95.10
2019-03-06T08:52:52.721Z,94.60
2019-03-06T08:55:36.210Z,94.50
2019-03-06T08:58:15.007Z,94.50
2019-03-06T09:01:09.100Z,93.60
2019-03-06T09:03:57.185Z,93.10
2019-03-06T09:06:45.539Z,92.80
2019-03-06T09:09:47.960Z,92.00
2019-03-06T09:12:24.250Z,92.10
2019-03-06T09:15:16.643Z,92.10
2019-03-06T09:17:57.441Z,91.50
2019-03-06T09:20:48.887Z,92.10
2019-03-06T09:23:38.242Z,92.30
2019-03-06T09:26:27.460Z,92.30
2019-03-06T09:29:15.700Z,92.40
2019-03-06T09:32:03.991Z,92.20
2019-03-06T09:35:00.306Z,91.80
2019-03-06T09:37:49.106Z,91.60
2019-03-06T09:40:26.399Z,90.50
2019-03-06T09:43:09.158Z,89.50
2019-03-06T09:45:57.031Z,85.50
2019-03-06T09:48:36.873Z,85.80
2019-03-06T09:51:15.473Z,83.40
2019-03-06T09:53:56.637Z,83.40
2019-03-06T09:56:45.943Z,81.50
2019-03-06T09:59:22.988Z,82.10
2019-03-06T10:02:06.890Z,81.40
2019-03-06T10:05:04.994Z,79.60
2019-03-06T10:07:52.125Z,80.60
2019-03-06T10:10:34.527Z,80.70
2019-03-06T10:13:19.501Z,78.40
2019-03-06T10:16:04.681Z,77.10
2019-03-06T10:18:42.449Z,78.60
2019-03-06T10:21:13.487Z,76.00
2019-03-06T10:23:43.921Z,77.00
2019-03-06T10:26:14.404Z,74.80
2019-03-06T10:28:44.811Z,74.90
2019-03-06T10:31:16.012Z,74.30
2019-03-06T10:33:46.407Z,73.10
2019-03-06T10:36:17.719Z,71.80
2019-03-06T10:38:48.156Z,71.90
2019-03-06T10:41:18.821Z,70.30
2019-03-06T10:43:49.656Z,70.20
2019-03-06T10:46:20.790Z,68.50
2019-03-06T10:48:51.141Z,66.60
2019-03-06T10:51:21.716Z,66.60
2019-03-06T10:53:52.066Z,70.20
2019-03-06T10:56:22.845Z,67.80
2019-03-06T10:58:53.217Z,69.00
2019-03-06T11:01:23.928Z,65.70
2019-03-06T11:04:12.130Z,62.70
2019-03-06T11:06:42.644Z,63.60
2019-03-06T11:09:13.267Z,58.90
2019-03-06T11:11:43.747Z,57.80
2019-03-06T11:14:14.191Z,56.90
2019-03-06T11:16:44.573Z,56.60
2019-03-06T11:19:17.593Z,55.90
2019-03-06T11:21:48.141Z,56.20
2019-03-06T11:24:19.856Z,54.90
2019-03-06T11:26:50.768Z,54.20
2019-03-06T11:29:21.175Z,53.90
2019-03-06T11:31:52.260Z,52.00
2019-03-06T11:34:22.906Z,51.70
2019-03-06T11:36:53.918Z,50.90
2019-03-06T11:39:24.960Z,51.20
2019-03-06T11:41:55.522Z,51.50
2019-03-06T11:44:25.949Z,51.90
2019-03-06T11:46:56.589Z,52.40
2019-03-06T11:49:27.317Z,50.90
2019-03-06T11:51:58.538Z,50.80
2019-03-06T11:54:29.041Z,50.00
2019-03-06T11:57:00.125Z,47.90
2019-03-06T11:59:31.491Z,47.30
2019-03-06T12:02:02.063Z,45.10
2019-03-06T12:04:32.404Z,44.70
2019-03-06T12:07:02.881Z,43.90
2019-03-06T12:09:33.902Z,43.00
2019-03-06T12:12:04.992Z,41.70
2019-03-06T12:14:35.330Z,41.80
2019-03-06T12:17:08.402Z,41.00
2019-03-06T12:19:39.932Z,40.80
2019-03-06T12:22:13.698Z,39.80
2019-03-06T12:24:44.107Z,39.50
2019-03-06T12:27:17.899Z,39.00
2019-03-06T12:29:48.352Z,38.40
2019-03-06T12:32:18.879Z,38.30
2019-03-06T12:34:49.213Z,38.80
2019-03-06T12:37:19.579Z,38.70
2019-03-06T12:39:49.951Z,37.50
2019-03-06T12:42:20.363Z,37.70
2019-03-06T12:44:50.740Z,37.90
2019-03-06T12:47:21.097Z,38.10
2019-03-06T12:49:51.494Z,38.00
2019-03-06T12:52:21.986Z,35.90
2019-03-06T12:54:52.327Z,35.20
2019-03-06T12:57:22.686Z,34.30
2019-03-06T12:59:53.026Z,34.30
2019-03-06T13:02:23.408Z,33.80
2019-03-06T13:04:53.794Z,33.00
2019-03-06T13:07:24.168Z,34.20
2019-03-06T13:09:54.485Z,35.00
2019-03-06T13:12:24.886Z,35.10
2019-03-06T13:14:55.314Z,35.60
2019-03-06T13:17:26.081Z,35.90
2019-03-06T13:19:56.425Z,36.00
2019-03-06T13:22:27.078Z,36.20
2019-03-06T13:24:57.439Z,32.80
2019-03-06T13:27:27.833Z,31.10
2019-03-06T13:29:58.157Z,30.50
2019-03-06T13:32:37.837Z,30.10
2019-03-06T13:35:08.460Z,30.30
2019-03-06T13:37:38.815Z,30.10
2019-03-06T13:40:18.078Z,30.20
2019-03-06T13:42:41.415Z,30.60
2019-03-06T13:45:12.520Z,31.10
2019-03-06T13:47:42.986Z,31.00
2019-03-06T13:50:13.952Z,31.60
2019-03-06T13:52:44.407Z,31.50
2019-03-06T13:55:15.549Z,31.90
2019-03-06T13:57:46.735Z,31.90
2019-03-06T14:00:19.000Z,31.80
2019-03-06T14:02:50.200Z,31.60
2019-03-06T14:05:21.631Z,31.00
2019-03-06T14:07:56.402Z,30.90
2019-03-06T14:10:24.115Z,31.50
2019-03-06T14:12:55.051Z,31.70
2019-03-06T14:15:25.585Z,32.30
2019-03-06T14:17:56.396Z,33.10
2019-03-06T14:20:26.875Z,33.30
2019-03-06T14:22:57.328Z,33.30
2019-03-06T14:25:28.025Z,33.60
2019-03-06T14:27:58.430Z,34.50
2019-03-06T14:30:28.913Z,34.10
2019-03-06T14:32:59.455Z,34.20
2019-03-06T14:35:30.215Z,34.80
2019-03-06T14:38:00.662Z,35.60
2019-03-06T14:40:31.853Z,35.90
2019-03-06T14:43:02.929Z,35.60
2019-03-06T14:45:33.496Z,34.80
2019-03-06T14:48:03.850Z,35.10
2019-03-06T14:50:34.408Z,35.10
2019-03-06T14:53:06.993Z,34.90
2019-03-06T14:55:37.547Z,35.20
2019-03-06T14:58:07.975Z,35.40
2019-03-06T15:00:38.433Z,35.40
2019-03-06T15:03:08.763Z,35.80
2019-03-06T15:05:46.916Z,36.20
2019-03-06T15:08:11.486Z,36.20
2019-03-06T15:10:43.215Z,36.50
2019-03-06T15:13:13.725Z,36.40
2019-03-06T15:15:44.090Z,36.70
2019-03-06T15:18:14.943Z,36.70
2019-03-06T15:20:45.370Z,36.80
2019-03-06T15:23:15.810Z,36.90
2019-03-06T15:25:46.351Z,36.80
2019-03-06T15:28:16.714Z,36.90
2019-03-06T15:30:47.358Z,37.00
2019-03-06T15:33:17.723Z,37.20
2019-03-06T15:35:48.394Z,37.20
2019-03-06T15:38:18.773Z,37.70
2019-03-06T15:40:49.115Z,38.10
2019-03-06T15:43:20.137Z,38.50
2019-03-06T15:45:50.566Z,38.60
2019-03-06T15:48:20.944Z,38.90
2019-03-06T15:50:51.262Z,38.90
2019-03-06T15:53:24.545Z,39.10
2019-03-06T15:55:53.706Z,39.20
2019-03-06T15:58:24.198Z,39.00
2019-03-06T16:00:54.538Z,38.90
2019-03-06T16:03:25.986Z,38.60
2019-03-06T16:05:56.447Z,38.90
2019-03-06T16:08:27.443Z,39.10
2019-03-06T16:10:57.770Z,39.60
2019-03-06T16:13:28.128Z,40.20
2019-03-06T16:15:58.837Z,40.40
2019-03-06T16:18:29.192Z,40.90
2019-03-06T16:20:59.597Z,41.30
2019-03-06T16:23:30.978Z,41.70
2019-03-06T16:26:01.311Z,42.30
2019-03-06T16:28:31.680Z,42.70
2019-03-06T16:31:02.786Z,43.10
2019-03-06T16:33:33.457Z,43.40
2019-03-06T16:36:03.914Z,43.80
2019-03-06T16:38:34.307Z,43.70
2019-03-06T16:41:04.849Z,44.00
2019-03-06T16:43:35.397Z,44.10
2019-03-06T16:46:06.286Z,44.10
2019-03-06T16:48:36.674Z,45.00
2019-03-06T16:51:09.102Z,45.00
2019-03-06T16:53:39.594Z,45.10
2019-03-06T16:56:09.910Z,45.10
2019-03-06T16:58:40.831Z,44.60
2019-03-06T17:01:11.281Z,44.50
2019-03-06T17:03:42.574Z,44.20
2019-03-06T17:06:12.989Z,44.30
2019-03-06T17:08:44.573Z,44.70
2019-03-06T17:11:15.022Z,44.50
2019-03-06T17:13:45.906Z,44.30
2019-03-06T17:16:16.270Z,44.40
2019-03-06T17:18:47.197Z,44.80
2019-03-06T17:21:17.541Z,44.50
2019-03-06T17:23:48.014Z,44.70
2019-03-06T17:26:20.685Z,46.00
2019-03-06T17:28:50.695Z,46.50
2019-03-06T17:31:21.151Z,47.50
2019-03-06T17:33:51.831Z,48.40
2019-03-06T17:36:22.508Z,48.90
2019-03-06T17:38:53.180Z,48.70
2019-03-06T17:41:23.544Z,49.30
2019-03-06T17:43:54.450Z,49.60
2019-03-06T17:46:24.879Z,49.90
2019-03-06T17:48:55.477Z,50.20
2019-03-06T17:51:26.165Z,50.80
2019-03-06T17:53:56.822Z,50.90
2019-03-06T17:56:27.289Z,50.60
2019-03-06T17:58:58.798Z,50.10
2019-03-06T18:01:29.187Z,50.40
2019-03-06T18:04:12.739Z,50.40
2019-03-06T18:06:43.371Z,50.80
2019-03-06T18:09:13.818Z,51.10
2019-03-06T18:11:44.176Z,50.60
2019-03-06T18:14:14.561Z,50.80
2019-03-06T18:16:44.881Z,50.40
2019-03-06T18:19:16.131Z,50.00
2019-03-06T18:21:46.475Z,49.60
2019-03-06T18:24:16.903Z,49.20
2019-03-06T18:26:47.248Z,49.10
2019-03-06T18:29:19.042Z,49.40
2019-03-06T18:31:49.376Z,49.60
2019-03-06T18:34:19.747Z,49.70
2019-03-06T18:36:50.198Z,49.40
2019-03-06T18:39:21.338Z,49.30
2019-03-06T18:41:51.691Z,49.20
2019-03-06T18:44:22.067Z,49.30
2019-03-06T18:46:52.491Z,49.60
2019-03-06T18:49:22.998Z,49.90
2019-03-06T18:51:53.324Z,50.20
2019-03-06T18:54:24.189Z,50.80
2019-03-06T18:56:54.729Z,51.60
2019-03-06T18:59:25.072Z,52.00
2019-03-06T19:01:55.398Z,52.70
2019-03-06T19:04:25.769Z,53.10
2019-03-06T19:06:56.087Z,53.40
2019-03-06T19:09:28.251Z,53.30
2019-03-06T19:11:59.165Z,53.40
2019-03-06T19:14:29.557Z,53.30
2019-03-06T19:16:59.858Z,52.50
2019-03-06T19:19:30.209Z,52.50
2019-03-06T19:22:00.546Z,52.30
2019-03-06T19:24:30.975Z,52.30
2019-03-06T19:27:01.337Z,52.20
2019-03-06T19:29:32.887Z,52.60
2019-03-06T19:32:03.586Z,52.10
2019-03-06T19:34:33.977Z,51.10
2019-03-06T19:37:04.498Z,51.20
2019-03-06T19:39:34.897Z,51.30
2019-03-06T19:42:05.261Z,51.70
2019-03-06T19:44:35.642Z,51.00
2019-03-06T19:47:06.072Z,52.20
2019-03-06T19:49:36.474Z,51.90
2019-03-06T19:52:07.529Z,52.30
2019-03-06T19:54:37.888Z,52.30
2019-03-06T19:57:08.220Z,52.30
2019-03-06T19:59:38.595Z,52.20
2019-03-06T20:02:09.050Z,51.90
2019-03-06T20:04:39.756Z,51.80
2019-03-06T20:07:10.755Z,51.40
2019-03-06T20:09:41.163Z,51.20
2019-03-06T20:12:11.554Z,50.90
2019-03-06T20:14:43.443Z,50.60
2019-03-06T20:17:14.178Z,50.40
2019-03-06T20:19:44.551Z,50.20
2019-03-06T20:22:18.304Z,49.90
2019-03-06T20:24:48.775Z,49.30
2019-03-06T20:27:19.365Z,49.00
2019-03-06T20:29:50.045Z,48.50
2019-03-06T20:32:23.330Z,48.10
2019-03-06T20:34:54.578Z,48.10
2019-03-06T20:37:24.972Z,47.70
2019-03-06T20:39:55.333Z,47.70
2019-03-06T20:42:25.733Z,46.80
2019-03-06T20:45:00.329Z,46.70
2019-03-06T20:47:31.098Z,46.30
2019-03-06T20:50:01.667Z,46.20
2019-03-06T20:52:33.127Z,45.80
2019-03-06T20:55:07.953Z,45.60
2019-03-06T20:57:38.632Z,45.70
2019-03-06T21:00:15.351Z,45.40
2019-03-06T21:02:45.743Z,45.30
2019-03-06T21:05:16.396Z,45.20
2019-03-06T21:07:46.738Z,44.90
2019-03-06T21:10:17.235Z,44.90
2019-03-06T21:12:47.682Z,44.90
2019-03-06T21:15:19.001Z,44.40
2019-03-06T21:17:49.497Z,44.10
2019-03-06T21:20:19.870Z,43.90
2019-03-06T21:22:50.444Z,43.80
2019-03-06T21:25:20.813Z,43.60
2019-03-06T21:27:51.447Z,43.30
2019-03-06T21:30:29.581Z,43.00
2019-03-06T21:32:59.923Z,43.20
2019-03-06T21:35:30.292Z,42.60
2019-03-06T21:38:00.715Z,42.50
2019-03-06T21:40:31.529Z,42.80
2019-03-06T21:43:01.933Z,42.50
2019-03-06T21:45:33.800Z,42.50
2019-03-06T21:48:04.309Z,42.40
2019-03-06T21:50:34.688Z,42.60
2019-03-06T21:53:05.111Z,42.60
2019-03-06T21:55:35.494Z,42.80
2019-03-06T21:58:05.902Z,43.10
2019-03-06T22:00:36.422Z,43.00
2019-03-06T22:03:06.840Z,43.20
2019-03-06T22:05:39.361Z,43.40
2019-03-06T22:08:10.228Z,43.30
2019-03-06T22:10:40.631Z,43.30
2019-03-06T22:13:11.098Z,43.40
2019-03-06T22:15:41.506Z,43.60
2019-03-06T22:18:12.950Z,43.80
2019-03-06T22:20:44.901Z,44.00
2019-03-06T22:23:15.373Z,44.40
2019-03-06T22:26:05.864Z,45.20
2019-03-06T22:28:36.286Z,46.10
2019-03-06T22:31:06.864Z,46.90
2019-03-06T22:33:37.230Z,48.00
2019-03-06T22:36:07.583Z,48.10
2019-03-06T22:38:39.394Z,49.00
2019-03-06T22:41:09.785Z,49.90
2019-03-06T22:43:40.130Z,50.60
2019-03-06T22:46:10.486Z,51.80
2019-03-06T22:48:40.877Z,52.00
2019-03-06T22:51:11.245Z,53.20
2019-03-06T22:53:41.607Z,54.00
2019-03-06T22:56:11.964Z,54.70
2019-03-06T22:58:42.318Z,55.60
2019-03-06T23:01:21.977Z,56.30
2019-03-06T23:03:55.497Z,56.90
2019-03-06T23:06:26.439Z,57.30
2019-03-06T23:08:57.648Z,57.00
2019-03-06T23:11:28.190Z,57.40
2019-03-06T23:14:00.156Z,58.10
2019-03-06T23:16:42.887Z,57.80
2019-03-06T23:19:13.774Z,57.60
2019-03-06T23:21:44.838Z,57.50
2019-03-06T23:24:15.883Z,57.30
2019-03-06T23:26:46.454Z,57.20
2019-03-06T23:29:17.131Z,57.20
2019-03-06T23:31:47.832Z,57.40
2019-03-06T23:34:18.121Z,57.50
2019-03-06T23:36:48.627Z,58.10
2019-03-06T23:39:19.007Z,59.10
2019-03-06T23:41:49.853Z,58.50
2019-03-06T23:44:20.213Z,58.70
2019-03-06T23:46:51.103Z,58.60
2019-03-06T23:49:21.694Z,58.50
2019-03-06T23:52:01.918Z,58.80
2019-03-06T23:54:32.621Z,59.70
2019-03-06T23:57:02.993Z,59.40
2019-03-06T23:59:33.311Z,59.10
